sensor_id;sensor_type;location;lat;lon;timestamp;pressure;altitude;pressure_sealevel;temperature;humidity
33554;BME280;19885;42.208;24.952;2023-05-11T00:01:07;100352.22;;;11.99;85.88
33554;BME280;19885;42.208;24.952;2023-05-11T00:03:32;100347.88;;;12.04;86.22
33554;BME280;19885;42.208;24.952;2023-05-11T00:05:58;100355.56;;;11.86;86.78
33554;BME280;19885;42.208;24.952;2023-05-11T00:08:23;100364.34;;;11.95;86.71
33554;BME280;19885;42.208;24.952;2023-05-11T00:10:49;100356.34;;;11.77;87.54
33554;BME280;19885;42.208;24.952;2023-05-11T00:13:14;100354.63;;;11.78;87.32
33554;BME280;19885;42.208;24.952;2023-05-11T00:15:40;100362.34;;;11.69;88.02
33554;BME280;19885;42.208;24.952;2023-05-11T00:18:05;100358.91;;;11.73;88.28
33554;BME280;19885;42.208;24.952;2023-05-11T00:20:30;100361.69;;;11.88;87.59
33554;BME280;19885;42.208;24.952;2023-05-11T00:22:56;100362.72;;;12.05;87.98
33554;BME280;19885;42.208;24.952;2023-05-11T00:25:21;100361.84;;;12.09;87.05
33554;BME280;19885;42.208;24.952;2023-05-11T00:27:46;100361.69;;;11.91;87.43
33554;BME280;19885;42.208;24.952;2023-05-11T00:30:12;100359.97;;;11.93;87.76
33554;BME280;19885;42.208;24.952;2023-05-11T00:32:39;100353.97;;;12.01;87.50
33554;BME280;19885;42.208;24.952;2023-05-11T00:35:04;100353.81;;;11.85;87.85
33554;BME280;19885;42.208;24.952;2023-05-11T00:37:30;100359.97;;;11.90;88.21
33554;BME280;19885;42.208;24.952;2023-05-11T00:39:55;100362.50;;;11.81;87.51
33554;BME280;19885;42.208;24.952;2023-05-11T00:42:20;100366.84;;;11.82;88.23
33554;BME280;19885;42.208;24.952;2023-05-11T00:44:46;100371.31;;;11.95;88.52
33554;BME280;19885;42.208;24.952;2023-05-11T00:47:11;100372.78;;;11.67;88.06
33554;BME280;19885;42.208;24.952;2023-05-11T00:49:37;100369.19;;;11.58;89.45
33554;BME280;19885;42.208;24.952;2023-05-11T00:52:03;100367.41;;;11.54;89.73
33554;BME280;19885;42.208;24.952;2023-05-11T00:54:29;100370.13;;;11.66;89.18
33554;BME280;19885;42.208;24.952;2023-05-11T00:56:54;100372.00;;;11.74;90.68
33554;BME280;19885;42.208;24.952;2023-05-11T00:59:20;100369.56;;;11.92;88.15
33554;BME280;19885;42.208;24.952;2023-05-11T01:01:45;100374.84;;;11.98;88.20
33554;BME280;19885;42.208;24.952;2023-05-11T01:04:11;100377.31;;;11.83;87.76
33554;BME280;19885;42.208;24.952;2023-05-11T01:11:47;100379.50;;;11.48;89.52
33554;BME280;19885;42.208;24.952;2023-05-11T01:14:19;100380.03;;;11.17;91.12
33554;BME280;19885;42.208;24.952;2023-05-11T01:16:48;100383.34;;;11.09;91.90
33554;BME280;19885;42.208;24.952;2023-05-11T01:19:25;100384.81;;;10.86;92.40
33554;BME280;19885;42.208;24.952;2023-05-11T01:21:53;100386.47;;;10.82;93.32
33554;BME280;19885;42.208;24.952;2023-05-11T01:24:22;100381.22;;;10.79;93.93
33554;BME280;19885;42.208;24.952;2023-05-11T01:32:27;100386.16;;;10.61;95.16
33554;BME280;19885;42.208;24.952;2023-05-11T01:35:17;100381.56;;;10.43;95.37
33554;BME280;19885;42.208;24.952;2023-05-11T01:37:42;100390.41;;;10.54;95.95
33554;BME280;19885;42.208;24.952;2023-05-11T01:40:11;100387.75;;;10.50;96.00
33554;BME280;19885;42.208;24.952;2023-05-11T01:42:41;100386.88;;;10.49;95.15
33554;BME280;19885;42.208;24.952;2023-05-11T01:45:07;100388.47;;;10.41;94.96
33554;BME280;19885;42.208;24.952;2023-05-11T01:47:34;100387.44;;;10.30;96.32
33554;BME280;19885;42.208;24.952;2023-05-11T01:50:02;100386.59;;;10.31;96.46
33554;BME280;19885;42.208;24.952;2023-05-11T01:52:28;100386.63;;;10.34;96.50
33554;BME280;19885;42.208;24.952;2023-05-11T01:54:54;100384.91;;;10.35;96.75
33554;BME280;19885;42.208;24.952;2023-05-11T01:57:21;100383.09;;;10.31;96.60
33554;BME280;19885;42.208;24.952;2023-05-11T01:59:48;100381.19;;;10.21;96.65
33554;BME280;19885;42.208;24.952;2023-05-11T02:02:15;100385.88;;;10.43;96.72
33554;BME280;19885;42.208;24.952;2023-05-11T02:04:40;100379.91;;;10.48;96.26
33554;BME280;19885;42.208;24.952;2023-05-11T02:07:07;100377.44;;;10.59;95.22
33554;BME280;19885;42.208;24.952;2023-05-11T02:09:35;100388.13;;;10.75;94.63
33554;BME280;19885;42.208;24.952;2023-05-11T02:12:00;100382.41;;;11.02;93.64
33554;BME280;19885;42.208;24.952;2023-05-11T02:14:27;100377.97;;;10.94;93.07
33554;BME280;19885;42.208;24.952;2023-05-11T02:16:58;100373.19;;;11.28;91.91
33554;BME280;19885;42.208;24.952;2023-05-11T02:19:24;100382.75;;;11.29;90.85
33554;BME280;19885;42.208;24.952;2023-05-11T02:21:49;100383.41;;;11.10;91.55
33554;BME280;19885;42.208;24.952;2023-05-11T02:24:17;100380.84;;;11.16;91.14
33554;BME280;19885;42.208;24.952;2023-05-11T02:26:44;100369.31;;;10.96;91.84
33554;BME280;19885;42.208;24.952;2023-05-11T02:29:10;100375.53;;;11.06;92.54
33554;BME280;19885;42.208;24.952;2023-05-11T02:31:39;100380.75;;;11.07;91.56
33554;BME280;19885;42.208;24.952;2023-05-11T02:34:09;100376.38;;;11.06;92.69
33554;BME280;19885;42.208;24.952;2023-05-11T02:36:43;100375.25;;;10.86;92.17
33554;BME280;19885;42.208;24.952;2023-05-11T02:39:11;100375.88;;;10.70;93.95
33554;BME280;19885;42.208;24.952;2023-05-11T02:41:38;100380.72;;;10.46;95.05
33554;BME280;19885;42.208;24.952;2023-05-11T02:44:08;100379.81;;;10.42;95.71
33554;BME280;19885;42.208;24.952;2023-05-11T02:46:36;100376.31;;;10.40;96.15
33554;BME280;19885;42.208;24.952;2023-05-11T02:49:02;100377.31;;;10.50;95.63
33554;BME280;19885;42.208;24.952;2023-05-11T02:51:32;100386.69;;;10.39;96.14
33554;BME280;19885;42.208;24.952;2023-05-11T02:54:00;100380.53;;;10.34;95.70
33554;BME280;19885;42.208;24.952;2023-05-11T02:56:25;100380.50;;;10.31;96.40
33554;BME280;19885;42.208;24.952;2023-05-11T02:58:51;100389.09;;;10.27;96.25
33554;BME280;19885;42.208;24.952;2023-05-11T03:01:16;100382.09;;;10.23;96.49
33554;BME280;19885;42.208;24.952;2023-05-11T03:03:42;100392.22;;;10.07;97.79
33554;BME280;19885;42.208;24.952;2023-05-11T03:06:07;100394.13;;;10.16;98.00
33554;BME280;19885;42.208;24.952;2023-05-11T03:08:32;100388.25;;;10.28;97.21
33554;BME280;19885;42.208;24.952;2023-05-11T03:10:58;100394.22;;;10.21;97.14
33554;BME280;19885;42.208;24.952;2023-05-11T03:13:23;100396.16;;;10.34;96.78
33554;BME280;19885;42.208;24.952;2023-05-11T03:15:50;100402.31;;;10.36;97.16
33554;BME280;19885;42.208;24.952;2023-05-11T03:18:16;100391.75;;;10.30;97.96
33554;BME280;19885;42.208;24.952;2023-05-11T03:20:42;100394.22;;;10.21;97.97
33554;BME280;19885;42.208;24.952;2023-05-11T03:23:09;100394.78;;;10.04;98.91
33554;BME280;19885;42.208;24.952;2023-05-11T03:25:36;100394.75;;;10.01;99.26
33554;BME280;19885;42.208;24.952;2023-05-11T03:28:02;100391.28;;;10.02;99.65
33554;BME280;19885;42.208;24.952;2023-05-11T03:30:28;100390.47;;;10.06;98.98
33554;BME280;19885;42.208;24.952;2023-05-11T03:32:54;100388.66;;;10.02;99.47
33554;BME280;19885;42.208;24.952;2023-05-11T03:35:20;100389.75;;;10.14;99.40
33554;BME280;19885;42.208;24.952;2023-05-11T03:37:47;100394.13;;;10.15;99.13
33554;BME280;19885;42.208;24.952;2023-05-11T03:40:16;100392.16;;;10.04;98.95
33554;BME280;19885;42.208;24.952;2023-05-11T03:42:43;100399.00;;;9.99;99.62
33554;BME280;19885;42.208;24.952;2023-05-11T03:45:09;100408.59;;;10.00;99.84
33554;BME280;19885;42.208;24.952;2023-05-11T03:47:39;100409.50;;;10.04;99.96
33554;BME280;19885;42.208;24.952;2023-05-11T03:50:05;100406.78;;;9.96;100.00
33554;BME280;19885;42.208;24.952;2023-05-11T03:52:31;100408.09;;;10.20;100.00
33554;BME280;19885;42.208;24.952;2023-05-11T03:54:56;100403.69;;;10.16;99.07
33554;BME280;19885;42.208;24.952;2023-05-11T03:57:25;100399.38;;;10.18;98.79
33554;BME280;19885;42.208;24.952;2023-05-11T03:59:50;100411.69;;;10.26;98.92
33554;BME280;19885;42.208;24.952;2023-05-11T04:02:16;100408.19;;;10.26;98.59
33554;BME280;19885;42.208;24.952;2023-05-11T04:04:42;100401.34;;;10.32;98.74
33554;BME280;19885;42.208;24.952;2023-05-11T04:07:07;100402.31;;;10.37;98.49
33554;BME280;19885;42.208;24.952;2023-05-11T04:09:33;100405.91;;;10.45;99.00
33554;BME280;19885;42.208;24.952;2023-05-11T04:11:58;100403.38;;;10.50;97.67
33554;BME280;19885;42.208;24.952;2023-05-11T04:14:24;100408.50;;;10.44;97.46
33554;BME280;19885;42.208;24.952;2023-05-11T04:16:49;100412.16;;;10.56;98.23
33554;BME280;19885;42.208;24.952;2023-05-11T04:19:14;100420.78;;;10.51;99.12
33554;BME280;19885;42.208;24.952;2023-05-11T04:21:40;100415.66;;;10.57;98.41
33554;BME280;19885;42.208;24.952;2023-05-11T04:24:06;100413.94;;;10.59;97.43
33554;BME280;19885;42.208;24.952;2023-05-11T04:26:31;100416.03;;;10.81;96.33
33554;BME280;19885;42.208;24.952;2023-05-11T04:28:57;100414.25;;;10.79;96.41
33554;BME280;19885;42.208;24.952;2023-05-11T04:31:22;100415.09;;;10.77;96.08
33554;BME280;19885;42.208;24.952;2023-05-11T04:33:47;100416.59;;;10.63;95.88
33554;BME280;19885;42.208;24.952;2023-05-11T04:36:13;100424.34;;;10.56;95.96
33554;BME280;19885;42.208;24.952;2023-05-11T04:38:38;100423.59;;;10.64;96.17
33554;BME280;19885;42.208;24.952;2023-05-11T04:41:06;100421.13;;;10.73;96.02
33554;BME280;19885;42.208;24.952;2023-05-11T04:43:32;100415.44;;;11.02;96.63
33554;BME280;19885;42.208;24.952;2023-05-11T04:45:58;100421.06;;;11.32;93.76
33554;BME280;19885;42.208;24.952;2023-05-11T04:48:23;100424.13;;;11.01;93.56
33554;BME280;19885;42.208;24.952;2023-05-11T04:50:49;100428.56;;;11.08;95.08
33554;BME280;19885;42.208;24.952;2023-05-11T04:53:14;100417.81;;;10.85;94.78
33554;BME280;19885;42.208;24.952;2023-05-11T04:55:39;100426.28;;;10.69;95.54
33554;BME280;19885;42.208;24.952;2023-05-11T04:58:05;100428.13;;;10.77;95.98
33554;BME280;19885;42.208;24.952;2023-05-11T05:00:30;100432.38;;;10.72;95.18
33554;BME280;19885;42.208;24.952;2023-05-11T05:02:55;100427.19;;;10.72;96.16
33554;BME280;19885;42.208;24.952;2023-05-11T05:05:21;100427.09;;;10.68;95.82
33554;BME280;19885;42.208;24.952;2023-05-11T05:07:46;100426.41;;;10.80;95.27
33554;BME280;19885;42.208;24.952;2023-05-11T05:10:11;100430.75;;;10.79;95.98
33554;BME280;19885;42.208;24.952;2023-05-11T05:12:40;100437.66;;;10.74;95.54
33554;BME280;19885;42.208;24.952;2023-05-11T05:15:05;100424.88;;;10.92;94.19
33554;BME280;19885;42.208;24.952;2023-05-11T05:17:31;100432.00;;;11.04;94.32
33554;BME280;19885;42.208;24.952;2023-05-11T05:19:56;100430.25;;;11.04;94.67
33554;BME280;19885;42.208;24.952;2023-05-11T05:22:23;100442.44;;;11.05;93.96
33554;BME280;19885;42.208;24.952;2023-05-11T05:24:48;100437.25;;;11.07;94.84
33554;BME280;19885;42.208;24.952;2023-05-11T05:27:14;100436.66;;;11.26;94.64
33554;BME280;19885;42.208;24.952;2023-05-11T05:29:39;100442.88;;;11.35;93.51
33554;BME280;19885;42.208;24.952;2023-05-11T05:32:05;100437.84;;;11.52;93.82
33554;BME280;19885;42.208;24.952;2023-05-11T05:34:30;100439.09;;;11.83;91.88
33554;BME280;19885;42.208;24.952;2023-05-11T05:36:55;100445.13;;;11.76;90.75
33554;BME280;19885;42.208;24.952;2023-05-11T05:39:20;100383.94;;;11.56;91.51
33554;BME280;19885;42.208;24.952;2023-05-11T05:41:46;100439.91;;;11.74;90.73
33554;BME280;19885;42.208;24.952;2023-05-11T05:44:11;100438.97;;;11.72;91.80
33554;BME280;19885;42.208;24.952;2023-05-11T05:46:36;100443.59;;;11.96;92.28
33554;BME280;19885;42.208;24.952;2023-05-11T05:49:02;100448.94;;;12.08;90.25
33554;BME280;19885;42.208;24.952;2023-05-11T05:51:27;100444.56;;;12.05;90.14
33554;BME280;19885;42.208;24.952;2023-05-11T05:53:52;100450.78;;;12.16;89.97
33554;BME280;19885;42.208;24.952;2023-05-11T05:56:18;100441.25;;;12.23;89.91
33554;BME280;19885;42.208;24.952;2023-05-11T05:58:43;100446.44;;;12.18;89.58
33554;BME280;19885;42.208;24.952;2023-05-11T06:01:08;100451.78;;;12.34;89.31
33554;BME280;19885;42.208;24.952;2023-05-11T06:03:34;100451.16;;;12.63;89.38
33554;BME280;19885;42.208;24.952;2023-05-11T06:05:59;100450.41;;;12.79;86.55
33554;BME280;19885;42.208;24.952;2023-05-11T06:08:26;100456.47;;;12.69;85.50
33554;BME280;19885;42.208;24.952;2023-05-11T06:10:51;100464.25;;;12.60;85.96
33554;BME280;19885;42.208;24.952;2023-05-11T06:13:17;100457.06;;;12.38;86.02
33554;BME280;19885;42.208;24.952;2023-05-11T06:15:42;100462.25;;;12.34;87.44
33554;BME280;19885;42.208;24.952;2023-05-11T06:18:07;100459.78;;;12.52;87.80
33554;BME280;19885;42.208;24.952;2023-05-11T06:20:33;100461.38;;;12.33;87.19
33554;BME280;19885;42.208;24.952;2023-05-11T06:22:58;100463.09;;;12.28;88.25
33554;BME280;19885;42.208;24.952;2023-05-11T06:25:23;100471.09;;;12.48;88.32
33554;BME280;19885;42.208;24.952;2023-05-11T06:27:48;100469.53;;;12.71;86.89
33554;BME280;19885;42.208;24.952;2023-05-11T06:30:14;100458.19;;;12.67;84.69
33554;BME280;19885;42.208;24.952;2023-05-11T06:32:39;100457.97;;;12.43;84.77
33554;BME280;19885;42.208;24.952;2023-05-11T11:48:06;100275.38;;;19.05;54.91
33554;BME280;19885;42.208;24.952;2023-05-11T11:50:32;100277.41;;;19.32;56.84
33554;BME280;19885;42.208;24.952;2023-05-11T11:52:57;100278.41;;;19.27;52.55
33554;BME280;19885;42.208;24.952;2023-05-11T11:58:08;100263.72;;;19.13;54.17
33554;BME280;19885;42.208;24.952;2023-05-11T12:00:33;100254.84;;;19.57;50.89
33554;BME280;19885;42.208;24.952;2023-05-11T12:02:59;100259.97;;;19.63;51.38
33554;BME280;19885;42.208;24.952;2023-05-11T12:05:26;100257.50;;;19.56;51.77
33554;BME280;19885;42.208;24.952;2023-05-11T12:07:53;100256.72;;;19.52;56.14
33554;BME280;19885;42.208;24.952;2023-05-11T12:10:19;100258.53;;;19.50;52.90
33554;BME280;19885;42.208;24.952;2023-05-11T12:12:45;100252.22;;;19.56;53.79
33554;BME280;19885;42.208;24.952;2023-05-11T12:15:30;100253.91;;;19.60;52.21
33554;BME280;19885;42.208;24.952;2023-05-11T12:17:58;100244.47;;;19.48;55.67
33554;BME280;19885;42.208;24.952;2023-05-11T12:20:27;100248.41;;;19.69;53.61
33554;BME280;19885;42.208;24.952;2023-05-11T12:22:54;100243.81;;;19.75;52.54
33554;BME280;19885;42.208;24.952;2023-05-11T12:25:20;100235.41;;;19.58;50.38
33554;BME280;19885;42.208;24.952;2023-05-11T12:27:55;100223.84;;;19.64;57.44
33554;BME280;19885;42.208;24.952;2023-05-11T12:30:27;100226.31;;;19.70;49.68
33554;BME280;19885;42.208;24.952;2023-05-11T12:32:53;100216.97;;;19.90;51.51
33554;BME280;19885;42.208;24.952;2023-05-11T12:35:28;100219.19;;;20.07;53.45
33554;BME280;19885;42.208;24.952;2023-05-11T12:37:54;100223.44;;;19.80;51.18
33554;BME280;19885;42.208;24.952;2023-05-11T12:40:20;100211.66;;;19.92;48.33
33554;BME280;19885;42.208;24.952;2023-05-11T12:42:52;100208.22;;;19.88;49.14
33554;BME280;19885;42.208;24.952;2023-05-11T12:45:18;100199.28;;;19.92;50.18
33554;BME280;19885;42.208;24.952;2023-05-11T12:47:45;100195.50;;;20.03;50.52
33554;BME280;19885;42.208;24.952;2023-05-11T12:50:10;100199.91;;;20.02;46.96
33554;BME280;19885;42.208;24.952;2023-05-11T12:52:36;100209.63;;;20.02;49.88
33554;BME280;19885;42.208;24.952;2023-05-11T12:55:01;100198.75;;;19.80;45.96
33554;BME280;19885;42.208;24.952;2023-05-11T12:57:27;100197.69;;;19.85;48.80
33554;BME280;19885;42.208;24.952;2023-05-11T13:00:06;100186.28;;;19.83;48.81
33554;BME280;19885;42.208;24.952;2023-05-11T13:02:32;100180.75;;;19.92;52.57
33554;BME280;19885;42.208;24.952;2023-05-11T13:04:57;100172.28;;;19.80;46.63
33554;BME280;19885;42.208;24.952;2023-05-11T13:07:23;100174.34;;;19.67;46.36
33554;BME280;19885;42.208;24.952;2023-05-11T13:09:58;100169.94;;;19.69;49.29
33554;BME280;19885;42.208;24.952;2023-05-11T13:12:24;100171.16;;;19.55;50.45
33554;BME280;19885;42.208;24.952;2023-05-11T13:15:02;100174.81;;;19.49;48.74
33554;BME280;19885;42.208;24.952;2023-05-11T13:17:28;100171.75;;;19.31;50.52
33554;BME280;19885;42.208;24.952;2023-05-11T13:19:54;100164.00;;;19.58;49.28
33554;BME280;19885;42.208;24.952;2023-05-11T13:22:20;100167.53;;;19.59;48.09
33554;BME280;19885;42.208;24.952;2023-05-11T13:24:45;100169.53;;;19.84;47.83
33554;BME280;19885;42.208;24.952;2023-05-11T13:27:10;100174.59;;;19.58;48.87
33554;BME280;19885;42.208;24.952;2023-05-11T13:29:36;100167.16;;;19.74;51.30
33554;BME280;19885;42.208;24.952;2023-05-11T13:32:01;100159.25;;;19.72;49.53
33554;BME280;19885;42.208;24.952;2023-05-11T13:34:26;100158.50;;;19.67;50.23
33554;BME280;19885;42.208;24.952;2023-05-11T13:36:51;100159.34;;;19.69;51.82
33554;BME280;19885;42.208;24.952;2023-05-11T13:39:17;100166.75;;;19.55;50.70
33554;BME280;19885;42.208;24.952;2023-05-11T13:41:44;100156.06;;;19.60;51.49
33554;BME280;19885;42.208;24.952;2023-05-11T13:44:09;100162.06;;;19.66;48.88
33554;BME280;19885;42.208;24.952;2023-05-11T13:46:35;100156.19;;;19.89;48.68
33554;BME280;19885;42.208;24.952;2023-05-11T13:49:00;100160.66;;;19.53;49.00
33554;BME280;19885;42.208;24.952;2023-05-11T13:51:25;100158.34;;;19.38;49.01
33554;BME280;19885;42.208;24.952;2023-05-11T13:53:51;100155.56;;;19.06;50.10
33554;BME280;19885;42.208;24.952;2023-05-11T13:56:17;100154.00;;;18.97;47.57
33554;BME280;19885;42.208;24.952;2023-05-11T13:58:43;100150.63;;;18.91;49.31
33554;BME280;19885;42.208;24.952;2023-05-11T14:01:09;100156.28;;;19.14;49.03
33554;BME280;19885;42.208;24.952;2023-05-11T14:03:35;100152.69;;;19.15;47.76
33554;BME280;19885;42.208;24.952;2023-05-11T14:06:00;100156.59;;;19.00;49.49
33554;BME280;19885;42.208;24.952;2023-05-11T14:08:26;100154.66;;;18.69;48.52
33554;BME280;19885;42.208;24.952;2023-05-11T14:10:52;100152.72;;;18.77;50.53
33554;BME280;19885;42.208;24.952;2023-05-11T14:13:17;100156.31;;;18.73;49.42
33554;BME280;19885;42.208;24.952;2023-05-11T14:15:43;100152.78;;;18.74;49.79
33554;BME280;19885;42.208;24.952;2023-05-11T14:18:08;100151.97;;;18.72;50.65
33554;BME280;19885;42.208;24.952;2023-05-11T14:20:34;100158.19;;;18.68;51.32
33554;BME280;19885;42.208;24.952;2023-05-11T14:22:59;100149.78;;;18.50;51.27
33554;BME280;19885;42.208;24.952;2023-05-11T14:25:25;100151.78;;;18.36;50.74
33554;BME280;19885;42.208;24.952;2023-05-11T14:27:51;100155.16;;;18.43;49.88
33554;BME280;19885;42.208;24.952;2023-05-11T14:30:19;100152.50;;;18.46;50.45
33554;BME280;19885;42.208;24.952;2023-05-11T14:32:44;100148.34;;;18.33;52.73
33554;BME280;19885;42.208;24.952;2023-05-11T14:35:10;100150.69;;;18.48;52.20
33554;BME280;19885;42.208;24.952;2023-05-11T14:37:35;100151.88;;;18.75;51.10
33554;BME280;19885;42.208;24.952;2023-05-11T14:40:01;100146.00;;;18.62;49.26
33554;BME280;19885;42.208;24.952;2023-05-11T14:42:26;100139.28;;;18.44;51.27
33554;BME280;19885;42.208;24.952;2023-05-11T14:44:53;100148.34;;;18.33;49.88
33554;BME280;19885;42.208;24.952;2023-05-11T14:47:19;100153.78;;;18.25;50.95
33554;BME280;19885;42.208;24.952;2023-05-11T14:49:44;100148.81;;;18.09;50.62
33554;BME280;19885;42.208;24.952;2023-05-11T14:52:10;100088.75;;;17.78;50.79
33554;BME280;19885;42.208;24.952;2023-05-11T14:54:35;100152.09;;;18.20;52.23
33554;BME280;19885;42.208;24.952;2023-05-11T14:57:01;100149.84;;;18.44;51.89
33554;BME280;19885;42.208;24.952;2023-05-11T14:59:26;100159.88;;;18.27;52.76
33554;BME280;19885;42.208;24.952;2023-05-11T15:01:52;100149.84;;;18.44;53.26
33554;BME280;19885;42.208;24.952;2023-05-11T15:04:18;100148.00;;;18.51;51.45
33554;BME280;19885;42.208;24.952;2023-05-11T15:06:43;100163.66;;;18.59;51.04
33554;BME280;19885;42.208;24.952;2023-05-11T15:09:09;100152.66;;;18.35;50.49
33554;BME280;19885;42.208;24.952;2023-05-11T15:11:35;100154.97;;;18.53;51.23
33554;BME280;19885;42.208;24.952;2023-05-11T15:14:02;100147.78;;;18.62;52.58
33554;BME280;19885;42.208;24.952;2023-05-11T15:16:27;100146.47;;;18.39;53.76
33554;BME280;19885;42.208;24.952;2023-05-11T15:18:53;100151.25;;;18.64;52.93
33554;BME280;19885;42.208;24.952;2023-05-11T15:21:18;100126.50;;;18.68;51.80
33554;BME280;19885;42.208;24.952;2023-05-11T15:23:44;100138.75;;;18.72;51.84
33554;BME280;19885;42.208;24.952;2023-05-11T15:26:10;100092.69;;;18.45;52.24
33554;BME280;19885;42.208;24.952;2023-05-11T15:28:35;100136.03;;;18.75;52.10
33554;BME280;19885;42.208;24.952;2023-05-11T15:31:01;100144.03;;;18.72;53.47
33554;BME280;19885;42.208;24.952;2023-05-11T15:33:26;100137.59;;;18.42;51.86
33554;BME280;19885;42.208;24.952;2023-05-11T15:35:51;100140.78;;;18.59;53.52
33554;BME280;19885;42.208;24.952;2023-05-11T15:38:17;100148.84;;;18.53;52.85
33554;BME280;19885;42.208;24.952;2023-05-11T15:40:43;100151.66;;;18.42;51.93
33554;BME280;19885;42.208;24.952;2023-05-11T15:43:08;100131.66;;;18.32;51.02
33554;BME280;19885;42.208;24.952;2023-05-11T15:45:33;100149.81;;;18.47;52.97
33554;BME280;19885;42.208;24.952;2023-05-11T15:47:59;100139.28;;;18.47;53.60
33554;BME280;19885;42.208;24.952;2023-05-11T15:50:25;100091.41;;;18.21;53.70
33554;BME280;19885;42.208;24.952;2023-05-11T15:52:50;100090.13;;;17.98;51.67
33554;BME280;19885;42.208;24.952;2023-05-11T15:55:16;100134.88;;;18.02;54.25
33554;BME280;19885;42.208;24.952;2023-05-11T15:57:41;100142.97;;;18.37;53.52
33554;BME280;19885;42.208;24.952;2023-05-11T16:00:07;100137.69;;;18.37;54.49
33554;BME280;19885;42.208;24.952;2023-05-11T16:02:34;100145.44;;;18.02;53.98
33554;BME280;19885;42.208;24.952;2023-05-11T16:05:00;100141.28;;;18.33;56.19
33554;BME280;19885;42.208;24.952;2023-05-11T16:07:25;100145.13;;;18.19;54.15
33554;BME280;19885;42.208;24.952;2023-05-11T16:09:51;100144.94;;;18.26;54.49
33554;BME280;19885;42.208;24.952;2023-05-11T16:12:16;100153.63;;;18.31;55.62
33554;BME280;19885;42.208;24.952;2023-05-11T16:14:42;100144.47;;;18.06;55.18
33554;BME280;19885;42.208;24.952;2023-05-11T16:17:07;100146.94;;;18.15;55.19
33554;BME280;19885;42.208;24.952;2023-05-11T16:19:32;100146.59;;;17.88;56.19
33554;BME280;19885;42.208;24.952;2023-05-11T16:21:58;100153.50;;;17.93;55.71
33554;BME280;19885;42.208;24.952;2023-05-11T16:24:23;100158.16;;;17.79;57.39
33554;BME280;19885;42.208;24.952;2023-05-11T16:26:49;100160.50;;;17.44;57.10
33554;BME280;19885;42.208;24.952;2023-05-11T16:29:14;100153.44;;;17.46;57.49
33554;BME280;19885;42.208;24.952;2023-05-11T16:31:39;100160.47;;;17.45;55.79
33554;BME280;19885;42.208;24.952;2023-05-11T16:34:05;100157.75;;;17.53;57.70
33554;BME280;19885;42.208;24.952;2023-05-11T16:36:30;100163.81;;;17.56;57.27
33554;BME280;19885;42.208;24.952;2023-05-11T16:38:56;100165.66;;;17.50;57.41
33554;BME280;19885;42.208;24.952;2023-05-11T16:41:21;100168.31;;;17.50;57.66
33554;BME280;19885;42.208;24.952;2023-05-11T16:43:49;100169.28;;;17.43;57.95
33554;BME280;19885;42.208;24.952;2023-05-11T16:46:15;100178.81;;;17.54;57.55
33554;BME280;19885;42.208;24.952;2023-05-11T16:48:43;100171.09;;;17.41;57.45
33554;BME280;19885;42.208;24.952;2023-05-11T16:51:11;100179.13;;;17.32;56.58
33554;BME280;19885;42.208;24.952;2023-05-11T16:53:36;100179.19;;;17.29;58.39
33554;BME280;19885;42.208;24.952;2023-05-11T16:56:02;100186.56;;;17.04;58.30
33554;BME280;19885;42.208;24.952;2023-05-11T16:58:27;100185.88;;;16.91;58.34
33554;BME280;19885;42.208;24.952;2023-05-11T17:00:56;100187.47;;;17.03;59.43
33554;BME280;19885;42.208;24.952;2023-05-11T17:03:21;100189.22;;;17.05;58.78
33554;BME280;19885;42.208;24.952;2023-05-11T17:05:46;100193.50;;;17.13;61.12
33554;BME280;19885;42.208;24.952;2023-05-11T17:08:12;100201.69;;;16.91;59.54
33554;BME280;19885;42.208;24.952;2023-05-11T17:10:38;100200.84;;;16.88;59.80
33554;BME280;19885;42.208;24.952;2023-05-11T17:13:04;100206.88;;;16.96;59.29
33554;BME280;19885;42.208;24.952;2023-05-11T17:15:29;100213.00;;;16.98;60.25
33554;BME280;19885;42.208;24.952;2023-05-11T17:17:55;100211.38;;;16.89;59.53
33554;BME280;19885;42.208;24.952;2023-05-11T17:20:21;100212.22;;;16.91;59.46
33554;BME280;19885;42.208;24.952;2023-05-11T17:22:46;100210.66;;;16.78;59.87
33554;BME280;19885;42.208;24.952;2023-05-11T17:25:11;100220.22;;;16.85;59.88
33554;BME280;19885;42.208;24.952;2023-05-11T17:27:37;100223.09;;;16.64;59.24
33554;BME280;19885;42.208;24.952;2023-05-11T17:30:03;100219.81;;;16.44;60.07
33554;BME280;19885;42.208;24.952;2023-05-11T17:32:29;100227.78;;;16.35;60.22
33554;BME280;19885;42.208;24.952;2023-05-11T17:34:55;100227.19;;;16.10;59.84
33554;BME280;19885;42.208;24.952;2023-05-11T17:37:23;100223.47;;;16.28;60.90
33554;BME280;19885;42.208;24.952;2023-05-11T17:39:48;100224.28;;;16.34;60.24
33554;BME280;19885;42.208;24.952;2023-05-11T17:42:13;100220.03;;;16.23;60.45
33554;BME280;19885;42.208;24.952;2023-05-11T17:44:39;100226.88;;;16.39;60.54
33554;BME280;19885;42.208;24.952;2023-05-11T17:47:04;100235.81;;;16.23;61.14
33554;BME280;19885;42.208;24.952;2023-05-11T17:49:30;100230.53;;;16.26;61.56
33554;BME280;19885;42.208;24.952;2023-05-11T17:51:56;100240.22;;;16.18;60.43
33554;BME280;19885;42.208;24.952;2023-05-11T17:54:22;100240.44;;;15.98;60.93
33554;BME280;19885;42.208;24.952;2023-05-11T17:56:47;100236.00;;;16.02;60.94
33554;BME280;19885;42.208;24.952;2023-05-11T17:59:13;100231.53;;;16.11;62.50
33554;BME280;19885;42.208;24.952;2023-05-11T18:01:38;100241.34;;;15.96;62.03